sensor_id;sensor_type;location;lat;lon;timestamp;pressure;altitude;pressure_sealevel;temperature;humidity
64610;BME280;51019;46.090;6.350;2023-05-12T00:01:45;96243.97;;;9.17;100.00
64610;BME280;51019;46.090;6.350;2023-05-12T00:04:13;96240.00;;;9.03;100.00
64610;BME280;51019;46.090;6.350;2023-05-12T00:06:41;96231.88;;;9.06;100.00
64610;BME280;51019;46.090;6.350;2023-05-12T00:09:08;96232.03;;;9.14;100.00
64610;BME280;51019;46.090;6.350;2023-05-12T00:11:36;96237.22;;;9.33;100.00
64610;BME280;51019;46.090;6.350;2023-05-12T00:14:03;96229.38;;;9.33;100.00
64610;BME280;51019;46.090;6.350;2023-05-12T00:16:32;96229.75;;;9.38;100.00
64610;BME280;51019;46.090;6.350;2023-05-12T00:19:00;96228.56;;;9.23;100.00
64610;BME280;51019;46.090;6.350;2023-05-12T00:21:27;96230.78;;;9.18;100.00
64610;BME280;51019;46.090;6.350;2023-05-12T00:23:54;96237.59;;;9.38;100.00
64610;BME280;51019;46.090;6.350;2023-05-12T00:26:22;96234.88;;;9.30;100.00
64610;BME280;51019;46.090;6.350;2023-05-12T00:28:49;96234.75;;;9.22;100.00
64610;BME280;51019;46.090;6.350;2023-05-12T00:31:16;96225.81;;;9.15;100.00
64610;BME280;51019;46.090;6.350;2023-05-12T00:33:46;96229.69;;;9.11;100.00
64610;BME280;51019;46.090;6.350;2023-05-12T00:36:13;96237.53;;;9.11;100.00
64610;BME280;51019;46.090;6.350;2023-05-12T00:38:41;96226.50;;;9.17;100.00
64610;BME280;51019;46.090;6.350;2023-05-12T00:41:08;96230.91;;;9.17;100.00
64610;BME280;51019;46.090;6.350;2023-05-12T00:43:36;96215.94;;;9.09;100.00
64610;BME280;51019;46.090;6.350;2023-05-12T00:46:06;96237.50;;;9.21;100.00
64610;BME280;51019;46.090;6.350;2023-05-12T00:48:36;96234.06;;;9.20;100.00
64610;BME280;51019;46.090;6.350;2023-05-12T00:51:05;96227.91;;;8.92;100.00
64610;BME280;51019;46.090;6.350;2023-05-12T00:53:34;96226.94;;;8.93;100.00
64610;BME280;51019;46.090;6.350;2023-05-12T00:56:01;96233.84;;;8.94;100.00
64610;BME280;51019;46.090;6.350;2023-05-12T00:58:28;96224.75;;;8.98;100.00
64610;BME280;51019;46.090;6.350;2023-05-12T01:00:56;96219.56;;;8.89;100.00
64610;BME280;51019;46.090;6.350;2023-05-12T01:03:24;96213.44;;;9.17;100.00
64610;BME280;51019;46.090;6.350;2023-05-12T01:05:55;96204.41;;;9.02;100.00
64610;BME280;51019;46.090;6.350;2023-05-12T01:08:27;96208.94;;;9.00;100.00
64610;BME280;51019;46.090;6.350;2023-05-12T01:10:55;96211.66;;;9.08;100.00
64610;BME280;51019;46.090;6.350;2023-05-12T01:13:23;96209.59;;;9.12;100.00
64610;BME280;51019;46.090;6.350;2023-05-12T01:15:52;96214.25;;;9.18;100.00
64610;BME280;51019;46.090;6.350;2023-05-12T01:18:20;96205.72;;;9.16;100.00
64610;BME280;51019;46.090;6.350;2023-05-12T01:20:50;96194.78;;;9.39;100.00
64610;BME280;51019;46.090;6.350;2023-05-12T01:23:19;96197.94;;;9.43;100.00
64610;BME280;51019;46.090;6.350;2023-05-12T01:25:54;96204.19;;;9.32;100.00
64610;BME280;51019;46.090;6.350;2023-05-12T01:28:24;96204.19;;;9.32;100.00
64610;BME280;51019;46.090;6.350;2023-05-12T01:30:52;96203.06;;;9.35;100.00
64610;BME280;51019;46.090;6.350;2023-05-12T01:33:20;96184.34;;;9.30;100.00
64610;BME280;51019;46.090;6.350;2023-05-12T01:35:49;96200.63;;;9.24;100.00
64610;BME280;51019;46.090;6.350;2023-05-12T01:38:17;96196.88;;;9.26;100.00
64610;BME280;51019;46.090;6.350;2023-05-12T01:40:46;96165.28;;;9.10;100.00
64610;BME280;51019;46.090;6.350;2023-05-12T01:43:14;96196.50;;;9.21;100.00
64610;BME280;51019;46.090;6.350;2023-05-12T01:45:43;96199.84;;;9.04;100.00
64610;BME280;51019;46.090;6.350;2023-05-12T01:48:11;96190.75;;;9.08;100.00
64610;BME280;51019;46.090;6.350;2023-05-12T01:50:39;96171.16;;;8.75;100.00
64610;BME280;51019;46.090;6.350;2023-05-12T01:53:07;96193.94;;;9.02;100.00
64610;BME280;51019;46.090;6.350;2023-05-12T01:55:36;96202.16;;;9.07;100.00
64610;BME280;51019;46.090;6.350;2023-05-12T01:58:04;96206.03;;;9.03;100.00
64610;BME280;51019;46.090;6.350;2023-05-12T02:00:33;96178.97;;;8.85;100.00
64610;BME280;51019;46.090;6.350;2023-05-12T02:03:04;96202.47;;;8.94;100.00
64610;BME280;51019;46.090;6.350;2023-05-12T02:05:33;96215.84;;;8.91;100.00
64610;BME280;51019;46.090;6.350;2023-05-12T02:08:01;96210.47;;;8.83;100.00
64610;BME280;51019;46.090;6.350;2023-05-12T02:10:30;96207.44;;;8.88;100.00
64610;BME280;51019;46.090;6.350;2023-05-12T02:12:58;96198.06;;;8.95;100.00
64610;BME280;51019;46.090;6.350;2023-05-12T02:15:26;96182.53;;;8.84;100.00
64610;BME280;51019;46.090;6.350;2023-05-12T02:17:54;96200.16;;;8.91;100.00
64610;BME280;51019;46.090;6.350;2023-05-12T02:20:24;96202.91;;;8.90;100.00
64610;BME280;51019;46.090;6.350;2023-05-12T02:22:53;96197.00;;;8.88;100.00
64610;BME280;51019;46.090;6.350;2023-05-12T02:25:21;96189.69;;;8.82;100.00
64610;BME280;51019;46.090;6.350;2023-05-12T02:27:48;96190.00;;;8.79;100.00
64610;BME280;51019;46.090;6.350;2023-05-12T02:30:15;96189.84;;;8.90;100.00
64610;BME280;51019;46.090;6.350;2023-05-12T02:32:44;96186.25;;;9.00;100.00
64610;BME280;51019;46.090;6.350;2023-05-12T02:35:12;96172.38;;;8.90;100.00
64610;BME280;51019;46.090;6.350;2023-05-12T02:37:42;96187.66;;;8.76;100.00
64610;BME280;51019;46.090;6.350;2023-05-12T02:40:10;96185.19;;;8.64;100.00
64610;BME280;51019;46.090;6.350;2023-05-12T02:42:37;96184.09;;;8.57;100.00
64610;BME280;51019;46.090;6.350;2023-05-12T02:45:06;96194.41;;;8.68;100.00
64610;BME280;51019;46.090;6.350;2023-05-12T02:47:34;96190.00;;;8.79;100.00
64610;BME280;51019;46.090;6.350;2023-05-12T02:50:02;96184.34;;;8.73;100.00
64610;BME280;51019;46.090;6.350;2023-05-12T02:52:30;96185.88;;;8.66;100.00
64610;BME280;51019;46.090;6.350;2023-05-12T02:54:59;96180.91;;;8.73;100.00
64610;BME280;51019;46.090;6.350;2023-05-12T02:57:30;96184.03;;;8.96;100.00
64610;BME280;51019;46.090;6.350;2023-05-12T02:59:58;96173.22;;;8.62;100.00
64610;BME280;51019;46.090;6.350;2023-05-12T03:02:26;96166.34;;;8.61;100.00
64610;BME280;51019;46.090;6.350;2023-05-12T03:04:54;96172.53;;;8.79;100.00
64610;BME280;51019;46.090;6.350;2023-05-12T03:07:21;96166.34;;;8.80;100.00
64610;BME280;51019;46.090;6.350;2023-05-12T03:09:51;96181.34;;;8.78;100.00
64610;BME280;51019;46.090;6.350;2023-05-12T03:12:22;96175.84;;;8.62;100.00
64610;BME280;51019;46.090;6.350;2023-05-12T03:14:50;96170.06;;;8.68;100.00
64610;BME280;51019;46.090;6.350;2023-05-12T03:17:19;96176.53;;;8.54;100.00
64610;BME280;51019;46.090;6.350;2023-05-12T03:19:48;96183.13;;;8.58;100.00
64610;BME280;51019;46.090;6.350;2023-05-12T03:22:16;96160.44;;;8.49;100.00
64610;BME280;51019;46.090;6.350;2023-05-12T03:24:44;96174.84;;;8.72;100.00
64610;BME280;51019;46.090;6.350;2023-05-12T03:27:14;96159.59;;;8.58;100.00
64610;BME280;51019;46.090;6.350;2023-05-12T03:29:43;96170.59;;;8.62;100.00
64610;BME280;51019;46.090;6.350;2023-05-12T03:32:11;96166.09;;;8.54;100.00
64610;BME280;51019;46.090;6.350;2023-05-12T03:34:39;96166.91;;;8.55;100.00
64610;BME280;51019;46.090;6.350;2023-05-12T03:37:07;96168.56;;;8.56;100.00
64610;BME280;51019;46.090;6.350;2023-05-12T03:39:35;96128.13;;;8.31;100.00
64610;BME280;51019;46.090;6.350;2023-05-12T03:42:04;96168.97;;;8.61;100.00
64610;BME280;51019;46.090;6.350;2023-05-12T03:44:32;96161.69;;;8.55;100.00
64610;BME280;51019;46.090;6.350;2023-05-12T03:47:01;96159.03;;;8.74;100.00
64610;BME280;51019;46.090;6.350;2023-05-12T03:49:29;96162.09;;;8.60;100.00
64610;BME280;51019;46.090;6.350;2023-05-12T03:51:58;96164.00;;;8.48;100.00
64610;BME280;51019;46.090;6.350;2023-05-12T03:54:27;96140.38;;;8.40;100.00
64610;BME280;51019;46.090;6.350;2023-05-12T03:56:55;96146.44;;;8.50;100.00
64610;BME280;51019;46.090;6.350;2023-05-12T03:59:23;96147.78;;;8.64;100.00
64610;BME280;51019;46.090;6.350;2023-05-12T04:01:51;96133.81;;;8.46;100.00
64610;BME280;51019;46.090;6.350;2023-05-12T04:04:21;96162.78;;;8.62;100.00
64610;BME280;51019;46.090;6.350;2023-05-12T04:06:49;96152.34;;;8.52;100.00
64610;BME280;51019;46.090;6.350;2023-05-12T04:09:18;96143.38;;;8.74;100.00
64610;BME280;51019;46.090;6.350;2023-05-12T04:11:47;96139.00;;;8.65;100.00
64610;BME280;51019;46.090;6.350;2023-05-12T04:14:15;96145.47;;;8.42;100.00
64610;BME280;51019;46.090;6.350;2023-05-12T04:16:43;96145.88;;;8.37;100.00
64610;BME280;51019;46.090;6.350;2023-05-12T04:19:11;96133.78;;;8.36;100.00
64610;BME280;51019;46.090;6.350;2023-05-12T04:21:42;96145.88;;;8.37;100.00
64610;BME280;51019;46.090;6.350;2023-05-12T04:24:13;96124.28;;;8.25;100.00
64610;BME280;51019;46.090;6.350;2023-05-12T04:26:43;96167.31;;;8.60;100.00
64610;BME280;51019;46.090;6.350;2023-05-12T04:29:11;96155.22;;;8.49;100.00
64610;BME280;51019;46.090;6.350;2023-05-12T04:31:39;96161.81;;;8.63;100.00
64610;BME280;51019;46.090;6.350;2023-05-12T04:34:06;96164.69;;;8.60;100.00
64610;BME280;51019;46.090;6.350;2023-05-12T04:36:34;96161.97;;;8.52;100.00
64610;BME280;51019;46.090;6.350;2023-05-12T04:39:07;96160.06;;;8.44;100.00
64610;BME280;51019;46.090;6.350;2023-05-12T04:41:34;96161.28;;;8.50;100.00
64610;BME280;51019;46.090;6.350;2023-05-12T04:44:02;96165.94;;;8.65;100.00
64610;BME280;51019;46.090;6.350;2023-05-12T04:46:31;96175.97;;;8.51;100.00
64610;BME280;51019;46.090;6.350;2023-05-12T04:48:59;96172.41;;;8.52;100.00
64610;BME280;51019;46.090;6.350;2023-05-12T04:51:27;96174.06;;;8.62;100.00
64610;BME280;51019;46.090;6.350;2023-05-12T04:53:55;96149.72;;;8.52;100.00
64610;BME280;51019;46.090;6.350;2023-05-12T04:56:25;96174.19;;;8.80;100.00
64610;BME280;51019;46.090;6.350;2023-05-12T04:58:52;96174.97;;;8.81;100.00
64610;BME280;51019;46.090;6.350;2023-05-12T05:01:20;96167.56;;;8.76;100.00
64610;BME280;51019;46.090;6.350;2023-05-12T05:03:47;96169.75;;;8.90;100.00
64610;BME280;51019;46.090;6.350;2023-05-12T05:06:15;96168.47;;;9.04;100.00
64610;BME280;51019;46.090;6.350;2023-05-12T05:08:43;96179.25;;;9.28;100.00
64610;BME280;51019;46.090;6.350;2023-05-12T05:11:10;96175.13;;;9.26;100.00
64610;BME280;51019;46.090;6.350;2023-05-12T05:13:39;96173.13;;;9.10;100.00
64610;BME280;51019;46.090;6.350;2023-05-12T05:16:07;96183.38;;;9.31;100.00
64610;BME280;51019;46.090;6.350;2023-05-12T05:18:35;96176.69;;;9.56;100.00
64610;BME280;51019;46.090;6.350;2023-05-12T05:21:06;96180.91;;;9.66;100.00
64610;BME280;51019;46.090;6.350;2023-05-12T05:23:34;96179.94;;;9.67;100.00
64610;BME280;51019;46.090;6.350;2023-05-12T05:26:02;96180.84;;;10.03;100.00
64610;BME280;51019;46.090;6.350;2023-05-12T05:28:32;96184.63;;;9.91;100.00
64610;BME280;51019;46.090;6.350;2023-05-12T05:31:03;96186.78;;;9.96;100.00
64610;BME280;51019;46.090;6.350;2023-05-12T05:33:30;96149.84;;;9.81;100.00
64610;BME280;51019;46.090;6.350;2023-05-12T05:36:00;96186.00;;;10.13;100.00
64610;BME280;51019;46.090;6.350;2023-05-12T05:38:28;96185.63;;;10.35;100.00
64610;BME280;51019;46.090;6.350;2023-05-12T05:40:57;96184.88;;;10.61;100.00
64610;BME280;51019;46.090;6.350;2023-05-12T05:43:25;96170.41;;;10.57;100.00
64610;BME280;51019;46.090;6.350;2023-05-12T05:45:57;96180.59;;;10.42;100.00
64610;BME280;51019;46.090;6.350;2023-05-12T05:48:28;96175.06;;;10.17;100.00
64610;BME280;51019;46.090;6.350;2023-05-12T05:50:57;96185.06;;;10.32;100.00
64610;BME280;51019;46.090;6.350;2023-05-12T05:53:24;96078.94;;;9.57;100.00
64610;BME280;51019;46.090;6.350;2023-05-12T05:55:52;96179.63;;;10.25;100.00
64610;BME280;51019;46.090;6.350;2023-05-12T05:58:20;96174.06;;;10.28;100.00
64610;BME280;51019;46.090;6.350;2023-05-12T06:00:48;96192.13;;;10.49;100.00
64610;BME280;51019;46.090;6.350;2023-05-12T06:03:16;96184.56;;;10.46;100.00
64610;BME280;51019;46.090;6.350;2023-05-12T06:05:45;96189.41;;;10.76;100.00
64610;BME280;51019;46.090;6.350;2023-05-12T06:08:12;96196.56;;;11.18;100.00
64610;BME280;51019;46.090;6.350;2023-05-12T06:10:40;96194.94;;;11.17;100.00
64610;BME280;51019;46.090;6.350;2023-05-12T06:13:08;96176.47;;;11.01;100.00
64610;BME280;51019;46.090;6.350;2023-05-12T06:15:37;96172.06;;;11.01;100.00
64610;BME280;51019;46.090;6.350;2023-05-12T06:18:05;96177.97;;;11.03;100.00
64610;BME280;51019;46.090;6.350;2023-05-12T06:20:34;96192.53;;;11.57;100.00
64610;BME280;51019;46.090;6.350;2023-05-12T06:23:03;96194.78;;;11.44;100.00
64610;BME280;51019;46.090;6.350;2023-05-12T06:25:31;96181.72;;;11.01;100.00
64610;BME280;51019;46.090;6.350;2023-05-12T06:28:00;96193.88;;;10.84;100.00
64610;BME280;51019;46.090;6.350;2023-05-12T06:30:29;96178.53;;;10.89;100.00
64610;BME280;51019;46.090;6.350;2023-05-12T06:32:59;96191.31;;;11.18;100.00
64610;BME280;51019;46.090;6.350;2023-05-12T06:35:26;96201.94;;;11.34;100.00
64610;BME280;51019;46.090;6.350;2023-05-12T06:37:56;96201.91;;;11.26;100.00
64610;BME280;51019;46.090;6.350;2023-05-12T06:40:27;96191.66;;;11.15;100.00
64610;BME280;51019;46.090;6.350;2023-05-12T06:42:54;96187.81;;;11.27;100.00
64610;BME280;51019;46.090;6.350;2023-05-12T06:45:22;96202.91;;;11.33;100.00
64610;BME280;51019;46.090;6.350;2023-05-12T06:47:50;96196.38;;;11.37;100.00
64610;BME280;51019;46.090;6.350;2023-05-12T06:50:17;96203.88;;;11.58;100.00
64610;BME280;51019;46.090;6.350;2023-05-12T06:52:45;96203.34;;;11.54;100.00
64610;BME280;51019;46.090;6.350;2023-05-12T06:55:13;96190.59;;;11.59;100.00
64610;BME280;51019;46.090;6.350;2023-05-12T06:57:45;96184.75;;;11.74;100.00
64610;BME280;51019;46.090;6.350;2023-05-12T07:00:13;96198.63;;;11.92;100.00
64610;BME280;51019;46.090;6.350;2023-05-12T07:02:41;96193.19;;;11.85;100.00
64610;BME280;51019;46.090;6.350;2023-05-12T07:05:08;96209.28;;;11.82;100.00
64610;BME280;51019;46.090;6.350;2023-05-12T07:07:36;96196.53;;;11.70;100.00
64610;BME280;51019;46.090;6.350;2023-05-12T07:10:04;96204.19;;;11.89;100.00
64610;BME280;51019;46.090;6.350;2023-05-12T07:12:31;96202.34;;;12.23;100.00
64610;BME280;51019;46.090;6.350;2023-05-12T07:15:00;96199.56;;;12.33;100.00
64610;BME280;51019;46.090;6.350;2023-05-12T07:17:29;96162.94;;;12.31;100.00
64610;BME280;51019;46.090;6.350;2023-05-12T07:19:56;96190.53;;;12.35;100.00
64610;BME280;51019;46.090;6.350;2023-05-12T07:22:23;96200.28;;;12.51;100.00
64610;BME280;51019;46.090;6.350;2023-05-12T07:24:51;96189.59;;;12.61;100.00
64610;BME280;51019;46.090;6.350;2023-05-12T07:27:18;96191.41;;;12.68;100.00
64610;BME280;51019;46.090;6.350;2023-05-12T07:29:45;96198.47;;;12.84;100.00
64610;BME280;51019;46.090;6.350;2023-05-12T07:32:14;96196.16;;;12.81;100.00
64610;BME280;51019;46.090;6.350;2023-05-12T07:34:42;96192.03;;;12.46;100.00
64610;BME280;51019;46.090;6.350;2023-05-12T07:37:09;96192.19;;;12.53;100.00
64610;BME280;51019;46.090;6.350;2023-05-12T07:39:36;96174.16;;;12.50;100.00
64610;BME280;51019;46.090;6.350;2023-05-12T07:42:04;96182.50;;;13.10;100.00
64610;BME280;51019;46.090;6.350;2023-05-12T07:44:32;96185.59;;;13.54;100.00
64610;BME280;51019;46.090;6.350;2023-05-12T07:46:59;96162.06;;;13.53;100.00
64610;BME280;51019;46.090;6.350;2023-05-12T07:49:28;96166.53;;;13.36;100.00
64610;BME280;51019;46.090;6.350;2023-05-12T07:51:57;96169.81;;;13.38;100.00
64610;BME280;51019;46.090;6.350;2023-05-12T07:54:24;96179.41;;;13.31;100.00
64610;BME280;51019;46.090;6.350;2023-05-12T07:56:52;96172.22;;;13.64;100.00
64610;BME280;51019;46.090;6.350;2023-05-12T07:59:19;96171.59;;;13.93;100.00
64610;BME280;51019;46.090;6.350;2023-05-12T08:01:47;96157.22;;;14.03;100.00
64610;BME280;51019;46.090;6.350;2023-05-12T08:04:14;96167.50;;;14.52;100.00
64610;BME280;51019;46.090;6.350;2023-05-12T08:06:44;96170.16;;;14.52;100.00
64610;BME280;51019;46.090;6.350;2023-05-12T08:09:11;96161.88;;;14.24;100.00
64610;BME280;51019;46.090;6.350;2023-05-12T08:11:38;96151.22;;;13.87;100.00
64610;BME280;51019;46.090;6.350;2023-05-12T08:14:06;96160.59;;;13.89;100.00
64610;BME280;51019;46.090;6.350;2023-05-12T08:16:34;96164.41;;;13.87;100.00
64610;BME280;51019;46.090;6.350;2023-05-12T08:19:01;96152.09;;;13.71;100.00
64610;BME280;51019;46.090;6.350;2023-05-12T08:21:29;96148.44;;;14.11;100.00
64610;BME280;51019;46.090;6.350;2023-05-12T08:23:58;96140.97;;;13.92;100.00
64610;BME280;51019;46.090;6.350;2023-05-12T08:26:25;96151.38;;;14.16;100.00
64610;BME280;51019;46.090;6.350;2023-05-12T08:28:53;96144.66;;;14.36;100.00
64610;BME280;51019;46.090;6.350;2023-05-12T08:31:20;96149.22;;;14.73;100.00
64610;BME280;51019;46.090;6.350;2023-05-12T08:33:49;96138.84;;;15.09;100.00
64610;BME280;51019;46.090;6.350;2023-05-12T08:36:17;96152.69;;;16.00;100.00
64610;BME280;51019;46.090;6.350;2023-05-12T08:38:44;96151.53;;;15.87;100.00
64610;BME280;51019;46.090;6.350;2023-05-12T08:41:18;96140.50;;;15.40;99.96
64610;BME280;51019;46.090;6.350;2023-05-12T08:43:49;96138.59;;;15.34;100.00
64610;BME280;51019;46.090;6.350;2023-05-12T08:46:17;96143.34;;;14.86;100.00
64610;BME280;51019;46.090;6.350;2023-05-12T08:48:45;96132.47;;;15.18;100.00
64610;BME280;51019;46.090;6.350;2023-05-12T08:51:13;96135.69;;;15.58;100.00
64610;BME280;51019;46.090;6.350;2023-05-12T08:53:41;96123.31;;;15.58;99.76
64610;BME280;51019;46.090;6.350;2023-05-12T08:56:09;96133.91;;;15.06;100.00
64610;BME280;51019;46.090;6.350;2023-05-12T08:58:41;96108.81;;;15.40;100.00
64610;BME280;51019;46.090;6.350;2023-05-12T09:01:11;96124.47;;;15.85;100.00
64610;BME280;51019;46.090;6.350;2023-05-12T09:03:39;96136.75;;;15.93;100.00
64610;BME280;51019;46.090;6.350;2023-05-12T09:06:07;96139.66;;;16.70;96.14
64610;BME280;51019;46.090;6.350;2023-05-12T09:08:35;96136.53;;;16.88;94.29
64610;BME280;51019;46.090;6.350;2023-05-12T09:11:03;96134.19;;;16.99;90.57
64610;BME280;51019;46.090;6.350;2023-05-12T09:13:37;96133.81;;;17.02;91.94
64610;BME280;51019;46.090;6.350;2023-05-12T09:16:12;96130.75;;;16.56;90.01
64610;BME280;51019;46.090;6.350;2023-05-12T09:18:49;96105.38;;;16.26;89.85
64610;BME280;51019;46.090;6.350;2023-05-12T09:21:16;96134.19;;;16.00;90.31
64610;BME280;51019;46.090;6.350;2023-05-12T09:23:54;96118.59;;;16.26;93.43
64610;BME280;51019;46.090;6.350;2023-05-12T09:26:22;96112.91;;;16.44;89.10
64610;BME280;51019;46.090;6.350;2023-05-12T09:28:52;96118.19;;;16.44;88.59
64610;BME280;51019;46.090;6.350;2023-05-12T09:31:23;96120.75;;;16.16;89.58
64610;BME280;51019;46.090;6.350;2023-05-12T09:33:51;96119.03;;;15.72;90.96
64610;BME280;51019;46.090;6.350;2023-05-12T09:36:19;96105.03;;;16.29;93.50
64610;BME280;51019;46.090;6.350;2023-05-12T09:38:57;96115.19;;;16.68;88.22
64610;BME280;51019;46.090;6.350;2023-05-12T09:41:25;96121.25;;;16.26;92.40
64610;BME280;51019;46.090;6.350;2023-05-12T09:43:52;96109.13;;;15.95;90.36
64610;BME280;51019;46.090;6.350;2023-05-12T09:46:19;96117.69;;;16.12;90.49
64610;BME280;51019;46.090;6.350;2023-05-12T09:48:48;96119.88;;;16.09;91.99
64610;BME280;51019;46.090;6.350;2023-05-12T09:51:17;96108.50;;;16.29;88.38
64610;BME280;51019;46.090;6.350;2023-05-12T09:53:44;96111.94;;;16.30;90.94
64610;BME280;51019;46.090;6.350;2023-05-12T09:56:17;96116.22;;;16.95;87.59
64610;BME280;51019;46.090;6.350;2023-05-12T09:58:47;96113.69;;;17.36;88.48
64610;BME280;51019;46.090;6.350;2023-05-12T10:01:16;96114.53;;;17.50;81.86
64610;BME280;51019;46.090;6.350;2023-05-12T10:03:47;96115.47;;;17.63;73.28
64610;BME280;51019;46.090;6.350;2023-05-12T10:06:21;96114.69;;;17.69;71.46
64610;BME280;51019;46.090;6.350;2023-05-12T10:08:51;96118.16;;;17.08;69.39
64610;BME280;51019;46.090;6.350;2023-05-12T10:11:21;96109.00;;;17.10;70.73
64610;BME280;51019;46.090;6.350;2023-05-12T10:13:49;96109.06;;;17.51;64.58
64610;BME280;51019;46.090;6.350;2023-05-12T10:16:16;96109.19;;;17.36;65.53
64610;BME280;51019;46.090;6.350;2023-05-12T10:18:45;96102.88;;;17.72;65.22
64610;BME280;51019;46.090;6.350;2023-05-12T10:21:14;96111.19;;;18.10;62.59
64610;BME280;51019;46.090;6.350;2023-05-12T10:23:44;96101.13;;;18.79;62.48
64610;BME280;51019;46.090;6.350;2023-05-12T10:26:11;96100.75;;;18.96;63.13
64610;BME280;51019;46.090;6.350;2023-05-12T10:28:39;96098.81;;;17.69;64.41
64610;BME280;51019;46.090;6.350;2023-05-12T10:31:09;96100.50;;;17.90;63.52
64610;BME280;51019;46.090;6.350;2023-05-12T10:33:36;96098.44;;;17.86;66.77
64610;BME280;51019;46.090;6.350;2023-05-12T10:36:04;96085.75;;;17.74;63.88
64610;BME280;51019;46.090;6.350;2023-05-12T10:38:46;96096.00;;;17.84;63.25
64610;BME280;51019;46.090;6.350;2023-05-12T10:41:14;96087.38;;;17.34;65.88
64610;BME280;51019;46.090;6.350;2023-05-12T10:43:48;96081.16;;;17.14;64.91
64610;BME280;51019;46.090;6.350;2023-05-12T10:46:18;96077.53;;;17.22;66.07
64610;BME280;51019;46.090;6.350;2023-05-12T10:48:53;96062.75;;;17.06;66.16
64610;BME280;51019;46.090;6.350;2023-05-12T10:51:21;96068.53;;;16.88;64.64
64610;BME280;51019;46.090;6.350;2023-05-12T10:53:55;96075.44;;;17.17;65.32
64610;BME280;51019;46.090;6.350;2023-05-12T10:56:29;96068.75;;;17.56;65.45
64610;BME280;51019;46.090;6.350;2023-05-12T10:59:16;96056.69;;;17.53;63.36
64610;BME280;51019;46.090;6.350;2023-05-12T11:01:56;96063.53;;;17.34;60.83
64610;BME280;51019;46.090;6.350;2023-05-12T11:04:35;96065.00;;;17.78;60.63
64610;BME280;51019;46.090;6.350;2023-05-12T11:07:06;96059.69;;;17.37;63.72
64610;BME280;51019;46.090;6.350;2023-05-12T11:09:36;96052.94;;;17.00;62.83
64610;BME280;51019;46.090;6.350;2023-05-12T11:12:05;96049.75;;;16.83;62.07
64610;BME280;51019;46.090;6.350;2023-05-12T11:14:35;96049.19;;;16.88;62.42
64610;BME280;51019;46.090;6.350;2023-05-12T11:17:05;96060.31;;;16.77;63.05
64610;BME280;51019;46.090;6.350;2023-05-12T11:19:34;96055.53;;;17.28;64.34
64610;BME280;51019;46.090;6.350;2023-05-12T11:22:04;96050.78;;;17.51;63.51
64610;BME280;51019;46.090;6.350;2023-05-12T11:24:36;96050.97;;;17.91;60.38
64610;BME280;51019;46.090;6.350;2023-05-12T11:27:04;96041.75;;;17.87;61.88
64610;BME280;51019;46.090;6.350;2023-05-12T11:29:33;96049.75;;;17.93;59.87
64610;BME280;51019;46.090;6.350;2023-05-12T11:32:04;96039.16;;;17.93;58.84
64610;BME280;51019;46.090;6.350;2023-05-12T11:34:31;96041.50;;;18.75;57.14
64610;BME280;51019;46.090;6.350;2023-05-12T11:36:59;96019.72;;;20.27;53.93
64610;BME280;51019;46.090;6.350;2023-05-12T11:39:28;96034.84;;;19.50;56.44
64610;BME280;51019;46.090;6.350;2023-05-12T11:42:01;96031.50;;;18.77;58.61
64610;BME280;51019;46.090;6.350;2023-05-12T11:44:30;96013.47;;;18.20;58.79
64610;BME280;51019;46.090;6.350;2023-05-12T11:47:00;96027.25;;;17.76;59.95
64610;BME280;51019;46.090;6.350;2023-05-12T11:49:30;96022.25;;;18.14;60.15
64610;BME280;51019;46.090;6.350;2023-05-12T11:52:00;96029.38;;;18.00;60.45
64610;BME280;51019;46.090;6.350;2023-05-12T11:54:29;96015.50;;;17.98;59.90
64610;BME280;51019;46.090;6.350;2023-05-12T11:56:57;96018.13;;;17.98;58.63
64610;BME280;51019;46.090;6.350;2023-05-12T11:59:28;96019.34;;;17.96;59.55
64610;BME280;51019;46.090;6.350;2023-05-12T12:01:59;96019.50;;;17.74;60.11
64610;BME280;51019;46.090;6.350;2023-05-12T12:04:33;96011.34;;;17.69;58.69
64610;BME280;51019;46.090;6.350;2023-05-12T12:07:02;96015.91;;;18.08;57.32
64610;BME280;51019;46.090;6.350;2023-05-12T12:09:31;96013.09;;;18.36;57.04
64610;BME280;51019;46.090;6.350;2023-05-12T12:11:59;96005.38;;;18.61;57.84
64610;BME280;51019;46.090;6.350;2023-05-12T12:14:29;96010.94;;;19.31;57.39
64610;BME280;51019;46.090;6.350;2023-05-12T12:16:57;96008.84;;;19.59;57.43
64610;BME280;51019;46.090;6.350;2023-05-12T12:19:24;95972.47;;;18.95;57.01
64610;BME280;51019;46.090;6.350;2023-05-12T12:21:52;96004.47;;;19.78;53.58
64610;BME280;51019;46.090;6.350;2023-05-12T12:24:19;96002.31;;;19.55;49.79
64610;BME280;51019;46.090;6.350;2023-05-12T12:26:46;95997.84;;;19.93;49.66
64610;BME280;51019;46.090;6.350;2023-05-12T12:29:14;96002.00;;;20.46;46.83
64610;BME280;51019;46.090;6.350;2023-05-12T12:31:44;95993.16;;;22.04;46.70
64610;BME280;51019;46.090;6.350;2023-05-12T12:34:11;95999.06;;;21.77;49.58
64610;BME280;51019;46.090;6.350;2023-05-12T12:36:38;96004.06;;;20.12;53.17
64610;BME280;51019;46.090;6.350;2023-05-12T12:39:06;96003.19;;;19.36;54.50
64610;BME280;51019;46.090;6.350;2023-05-12T12:41:34;95994.63;;;19.27;53.56
64610;BME280;51019;46.090;6.350;2023-05-12T12:44:02;95980.78;;;19.12;55.49
64610;BME280;51019;46.090;6.350;2023-05-12T12:46:29;95998.97;;;19.73;53.73
64610;BME280;51019;46.090;6.350;2023-05-12T12:48:58;95990.47;;;19.44;51.38
64610;BME280;51019;46.090;6.350;2023-05-12T12:51:25;95989.88;;;19.49;55.26
64610;BME280;51019;46.090;6.350;2023-05-12T12:53:55;95995.66;;;19.19;52.71
64610;BME280;51019;46.090;6.350;2023-05-12T12:56:22;95999.22;;;18.94;51.85
64610;BME280;51019;46.090;6.350;2023-05-12T12:58:50;95993.59;;;19.35;53.91
64610;BME280;51019;46.090;6.350;2023-05-12T13:01:17;96004.97;;;19.62;51.10
64610;BME280;51019;46.090;6.350;2023-05-12T13:03:44;96002.16;;;19.88;53.09
64610;BME280;51019;46.090;6.350;2023-05-12T13:06:15;95994.28;;;19.68;53.61